Time;durP1;ratioP1;P1;durP2;ratioP2;P2;SDS_P1;SDS_P2;PMS_P1;PMS_P2;Temp;Humidity;BMP_temperature;BMP_pressure;BME280_temperature;BME280_humidity;BME280_pressure;Samples;Min_cycle;Max_cycle;Signal;HPM_P1;HPM_P2
2023/11/07 00:00:20;;;;;;;17.17;7.10;;;;;;;;;;5080129;28;20498;-63
2023/11/07 00:02:48;;;;;;;11.88;6.53;;;;;;;;;;5080534;28;20417;-65
2023/11/07 00:05:14;;;;;;;21.13;7.20;;;;;;;;;;5080167;28;20058;-64
2023/11/07 00:07:40;;;;;;;13.93;6.75;;;;;;;;;;5078821;28;20054;-67
2023/11/07 00:10:07;;;;;;;14.90;7.18;;;;;;;;;;5078555;28;20035;-66
2023/11/07 00:12:33;;;;;;;13.77;7.38;;;;;;;;;;5080593;28;20021;-65
2023/11/07 00:14:59;;;;;;;14.40;6.95;;;;;;;;;;5080702;28;20046;-64
2023/11/07 00:17:25;;;;;;;15.75;7.22;;;;;;;;;;5081035;28;20127;-64
2023/11/07 00:19:52;;;;;;;14.73;7.65;;;;;;;;;;5080077;28;20050;-64
2023/11/07 00:22:18;;;;;;;18.60;6.95;;;;;;;;;;5080955;28;20028;-66
2023/11/07 00:24:44;;;;;;;14.30;7.03;;;;;;;;;;5081270;28;20043;-64
2023/11/07 00:27:10;;;;;;;18.70;6.93;;;;;;;;;;5080907;28;20028;-64
2023/11/07 00:29:36;;;;;;;12.95;7.10;;;;;;;;;;5080720;28;20033;-64
2023/11/07 00:32:02;;;;;;;13.18;7.10;;;;;;;;;;5080546;28;20134;-63
2023/11/07 00:34:28;;;;;;;15.23;7.30;;;;;;;;;;5080768;28;20636;-64
2023/11/07 00:36:54;;;;;;;19.40;7.32;;;;;;;;;;5080912;28;20024;-64
2023/11/07 00:39:20;;;;;;;13.07;6.80;;;;;;;;;;5081023;28;20107;-64
2023/11/07 00:41:46;;;;;;;14.27;6.53;;;;;;;;;;5062612;28;20094;-64
2023/11/07 00:44:12;;;;;;;13.55;6.78;;;;;;;;;;5080492;28;20024;-62
2023/11/07 00:46:38;;;;;;;12.43;6.50;;;;;;;;;;5080476;28;20020;-65
2023/11/07 00:49:05;;;;;;;15.68;6.75;;;;;;;;;;5080091;28;20473;-64
2023/11/07 00:51:31;;;;;;;16.70;7.32;;;;;;;;;;5062999;28;20094;-64
2023/11/07 00:53:57;;;;;;;13.98;7.25;;;;;;;;;;5080472;28;20092;-65
2023/11/07 00:56:23;;;;;;;14.30;7.10;;;;;;;;;;5080776;28;20471;-66
2023/11/07 00:58:49;;;;;;;19.08;7.22;;;;;;;;;;5080631;28;20036;-67
2023/11/07 01:01:17;;;;;;;13.38;6.70;;;;;;;;;;5079842;28;20032;-66
2023/11/07 01:03:46;;;;;;;14.35;6.93;;;;;;;;;;5080592;28;20025;-65
2023/11/07 01:06:12;;;;;;;11.63;7.43;;;;;;;;;;5080423;28;20024;-65
2023/11/07 01:08:38;;;;;;;10.30;6.00;;;;;;;;;;5079880;28;20020;-64
2023/11/07 01:11:04;;;;;;;11.07;6.45;;;;;;;;;;5080297;28;20035;-65
2023/11/07 01:13:30;;;;;;;10.90;6.30;;;;;;;;;;5080041;28;20082;-65
2023/11/07 01:15:56;;;;;;;10.43;6.07;;;;;;;;;;5081915;28;20035;-64
2023/11/07 01:18:23;;;;;;;10.63;6.18;;;;;;;;;;5083297;28;20080;-65
2023/11/07 01:20:49;;;;;;;11.30;6.95;;;;;;;;;;5083506;28;20013;-63
2023/11/07 01:23:15;;;;;;;11.77;6.55;;;;;;;;;;5083982;28;20367;-64
2023/11/07 01:25:41;;;;;;;12.32;6.50;;;;;;;;;;5083945;28;20032;-65
2023/11/07 01:28:08;;;;;;;16.60;7.40;;;;;;;;;;5083900;28;20048;-64
2023/11/07 01:30:34;;;;;;;13.52;6.40;;;;;;;;;;5064369;28;20112;-63
2023/11/07 01:33:00;;;;;;;12.40;6.55;;;;;;;;;;5063748;28;20036;-62
2023/11/07 01:35:26;;;;;;;15.70;6.97;;;;;;;;;;5081291;28;20484;-63
2023/11/07 01:37:52;;;;;;;12.32;6.75;;;;;;;;;;5063222;28;20055;-62
2023/11/07 01:40:18;;;;;;;15.38;6.90;;;;;;;;;;5081241;28;20028;-63
2023/11/07 01:42:45;;;;;;;13.43;7.35;;;;;;;;;;5080864;28;20391;-62
2023/11/07 01:45:11;;;;;;;11.13;6.30;;;;;;;;;;5082001;28;20029;-62
2023/11/07 01:47:38;;;;;;;13.90;7.30;;;;;;;;;;5083158;28;20043;-65
2023/11/07 01:50:05;;;;;;;12.07;6.55;;;;;;;;;;5083299;28;20126;-63
2023/11/07 01:52:31;;;;;;;11.10;6.28;;;;;;;;;;5083425;28;20025;-64
2023/11/07 01:54:58;;;;;;;13.00;7.10;;;;;;;;;;5083182;28;20024;-64
2023/11/07 01:57:24;;;;;;;15.57;6.75;;;;;;;;;;5066851;28;20417;-64
2023/11/07 01:59:52;;;;;;;13.02;6.43;;;;;;;;;;5084068;28;20116;-64
2023/11/07 02:02:19;;;;;;;13.02;6.60;;;;;;;;;;5084550;28;20051;-63
2023/11/07 02:04:47;;;;;;;11.52;6.28;;;;;;;;;;5082746;28;20052;-64
2023/11/07 02:07:13;;;;;;;;;;;;;;;;;;5083089;28;20048;-64
2023/11/07 02:09:41;;;;;;;17.10;7.00;;;;;;;;;;5081560;28;20272;-63
2023/11/07 02:12:07;;;;;;;11.63;6.40;;;;;;;;;;5065038;28;20029;-64
2023/11/07 02:14:35;;;;;;;11.65;6.45;;;;;;;;;;5081543;28;20032;-62
2023/11/07 02:17:01;;;;;;;12.40;6.70;;;;;;;;;;5082528;28;20075;-65
2023/11/07 02:19:27;;;;;;;14.68;7.57;;;;;;;;;;5081907;28;20047;-62
2023/11/07 02:21:58;;;;;;;16.80;7.38;;;;;;;;;;5063403;28;20127;-63
2023/11/07 02:24:24;;;;;;;16.67;6.88;;;;;;;;;;5063638;28;20157;-63
2023/11/07 02:26:54;;;;;;;20.08;7.57;;;;;;;;;;5082590;28;20024;-64
2023/11/07 02:29:23;;;;;;;18.13;7.20;;;;;;;;;;5082135;28;20054;-63
2023/11/07 02:31:50;;;;;;;15.48;7.68;;;;;;;;;;5064910;28;20025;-64
2023/11/07 02:34:16;;;;;;;14.15;6.88;;;;;;;;;;5081948;28;20037;-65
2023/11/07 02:36:42;;;;;;;14.40;7.10;;;;;;;;;;5082923;28;20033;-65
2023/11/07 02:39:08;;;;;;;17.23;7.40;;;;;;;;;;5081906;28;20024;-65
2023/11/07 02:41:34;;;;;;;17.75;7.18;;;;;;;;;;5083183;28;20047;-65
2023/11/07 02:44:01;;;;;;;19.58;6.88;;;;;;;;;;5082100;28;20031;-64
2023/11/07 02:46:27;;;;;;;15.48;7.30;;;;;;;;;;5082308;28;20046;-62
2023/11/07 02:48:53;;;;;;;15.45;7.28;;;;;;;;;;5081959;28;20036;-62
2023/11/07 02:51:19;;;;;;;15.45;7.53;;;;;;;;;;5081497;28;20079;-64
2023/11/07 02:53:45;;;;;;;15.07;7.45;;;;;;;;;;5081823;28;20036;-64
2023/11/07 02:56:12;;;;;;;14.77;6.95;;;;;;;;;;5082076;28;20020;-64
2023/11/07 02:58:38;;;;;;;15.25;7.90;;;;;;;;;;5081313;28;20056;-64
2023/11/07 03:01:04;;;;;;;14.38;7.25;;;;;;;;;;5063669;28;20020;-64
2023/11/07 03:03:31;;;;;;;12.23;6.70;;;;;;;;;;5082387;28;20056;-63
2023/11/07 03:05:57;;;;;;;13.45;6.78;;;;;;;;;;5064004;28;20466;-63
2023/11/07 03:08:23;;;;;;;15.93;6.85;;;;;;;;;;5081474;28;20025;-64
2023/11/07 03:10:49;;;;;;;13.57;7.15;;;;;;;;;;5081432;28;20039;-65
2023/11/07 03:13:15;;;;;;;19.20;7.30;;;;;;;;;;5081000;28;20028;-65
2023/11/07 03:15:41;;;;;;;13.43;7.32;;;;;;;;;;5081336;28;20028;-66
2023/11/07 03:18:07;;;;;;;13.40;6.93;;;;;;;;;;5082112;28;20052;-65
2023/11/07 03:20:34;;;;;;;13.73;7.40;;;;;;;;;;5080949;28;20020;-66
2023/11/07 03:23:00;;;;;;;12.75;6.88;;;;;;;;;;5080823;28;20024;-62
2023/11/07 03:25:26;;;;;;;13.85;7.43;;;;;;;;;;5081532;28;20033;-64
2023/11/07 03:27:52;;;;;;;14.10;7.30;;;;;;;;;;5081789;28;20055;-64
2023/11/07 03:30:18;;;;;;;13.02;7.00;;;;;;;;;;5080325;28;20033;-62
2023/11/07 03:32:44;;;;;;;14.40;6.55;;;;;;;;;;5081553;28;20029;-63
2023/11/07 03:35:10;;;;;;;14.30;6.93;;;;;;;;;;5080943;28;20020;-64
2023/11/07 03:37:37;;;;;;;14.00;6.63;;;;;;;;;;5081087;28;20044;-64
2023/11/07 03:40:05;;;;;;;14.27;6.95;;;;;;;;;;5080288;28;20035;-64
2023/11/07 03:42:32;;;;;;;12.57;6.40;;;;;;;;;;5081882;28;20439;-63
2023/11/07 03:44:58;;;;;;;14.68;6.90;;;;;;;;;;5081274;28;20077;-65
2023/11/07 03:47:24;;;;;;;13.93;7.10;;;;;;;;;;5080644;28;20256;-61
2023/11/07 03:49:50;;;;;;;14.48;6.93;;;;;;;;;;5080784;28;20028;-63
2023/11/07 03:52:16;;;;;;;11.75;6.70;;;;;;;;;;5062754;28;20025;-63
2023/11/07 03:54:42;;;;;;;14.05;7.05;;;;;;;;;;5063167;28;20544;-63
2023/11/07 03:57:08;;;;;;;15.02;7.32;;;;;;;;;;5080108;28;20025;-63
2023/11/07 03:59:34;;;;;;;13.50;7.10;;;;;;;;;;5080948;28;20069;-63
2023/11/07 04:02:03;;;;;;;15.07;7.40;;;;;;;;;;5080368;28;20032;-63
2023/11/07 04:04:29;;;;;;;15.13;7.75;;;;;;;;;;5081477;28;20031;-63
2023/11/07 04:06:55;;;;;;;14.90;7.45;;;;;;;;;;5080480;28;20303;-64
2023/11/07 04:09:21;;;;;;;16.88;7.72;;;;;;;;;;5061679;28;20024;-64
2023/11/07 04:11:47;;;;;;;14.93;7.70;;;;;;;;;;5080589;28;20025;-63
2023/11/07 04:14:15;;;;;;;14.07;7.80;;;;;;;;;;5061005;28;20033;-64
2023/11/07 04:16:41;;;;;;;14.23;7.80;;;;;;;;;;5078149;28;20056;-61
2023/11/07 04:19:07;;;;;;;13.30;7.53;;;;;;;;;;5078456;28;20369;-61
2023/11/07 04:21:33;;;;;;;14.13;7.78;;;;;;;;;;5077943;28;20020;-62
2023/11/07 04:24:00;;;;;;;13.80;7.40;;;;;;;;;;5078227;28;20370;-63
2023/11/07 04:26:27;;;;;;;16.33;7.57;;;;;;;;;;5078074;28;20054;-61
2023/11/07 04:28:53;;;;;;;14.20;7.43;;;;;;;;;;5078818;28;20033;-65
2023/11/07 04:31:19;;;;;;;12.98;7.25;;;;;;;;;;5079447;28;20044;-62
2023/11/07 04:33:45;;;;;;;13.43;7.85;;;;;;;;;;5078624;28;20078;-66
2023/11/07 04:36:12;;;;;;;14.77;7.30;;;;;;;;;;5078738;28;20490;-65
2023/11/07 04:38:41;;;;;;;15.88;7.38;;;;;;;;;;5079344;28;20020;-64
2023/11/07 04:41:07;;;;;;;14.02;7.10;;;;;;;;;;5061094;28;20032;-61
2023/11/07 04:43:35;;;;;;;13.80;6.93;;;;;;;;;;5079245;28;20025;-62
2023/11/07 04:46:01;;;;;;;14.98;7.43;;;;;;;;;;5078888;28;20398;-63
2023/11/07 04:48:27;;;;;;;18.60;7.50;;;;;;;;;;5060515;28;20036;-64
2023/11/07 04:50:53;;;;;;;14.98;7.63;;;;;;;;;;5079831;28;20032;-63
2023/11/07 04:53:19;;;;;;;15.73;7.53;;;;;;;;;;5082499;28;20039;-64
2023/11/07 04:55:46;;;;;;;14.32;7.40;;;;;;;;;;5084110;28;20029;-64
2023/11/07 04:58:12;;;;;;;15.63;7.70;;;;;;;;;;5084221;28;20048;-63
2023/11/07 05:00:38;;;;;;;16.85;8.23;;;;;;;;;;5083120;28;20047;-63
2023/11/07 05:03:05;;;;;;;14.05;7.65;;;;;;;;;;5083278;28;20068;-63
2023/11/07 05:05:31;;;;;;;15.75;7.70;;;;;;;;;;5084082;28;20024;-63
2023/11/07 05:07:57;;;;;;;15.25;7.60;;;;;;;;;;5083255;28;20092;-63
2023/11/07 05:10:23;;;;;;;13.70;7.50;;;;;;;;;;5083272;28;20052;-61
2023/11/07 05:12:49;;;;;;;16.77;7.68;;;;;;;;;;5081524;28;20024;-61
2023/11/07 05:15:15;;;;;;;15.02;7.90;;;;;;;;;;5081630;28;20456;-62
2023/11/07 05:17:41;;;;;;;17.80;8.40;;;;;;;;;;5081279;28;20024;-63
2023/11/07 05:20:10;;;;;;;13.70;7.90;;;;;;;;;;5081658;28;20034;-62
2023/11/07 05:22:36;;;;;;;13.90;8.00;;;;;;;;;;5081314;28;20035;-62
2023/11/07 05:25:03;;;;;;;16.33;8.73;;;;;;;;;;5081503;28;20051;-63
2023/11/07 05:27:29;;;;;;;13.98;7.85;;;;;;;;;;5080755;28;20032;-63
2023/11/07 05:29:55;;;;;;;15.20;8.43;;;;;;;;;;5063561;28;20029;-64
2023/11/07 05:32:21;;;;;;;15.93;8.27;;;;;;;;;;5083817;28;20025;-65
2023/11/07 05:34:47;;;;;;;14.63;7.65;;;;;;;;;;5083477;28;20076;-65
2023/11/07 05:37:15;;;;;;;15.52;7.82;;;;;;;;;;5083673;28;20035;-64
2023/11/07 05:39:44;;;;;;;17.83;8.10;;;;;;;;;;5082341;28;20025;-63
2023/11/07 05:42:10;;;;;;;14.15;7.90;;;;;;;;;;5083052;28;20024;-64
2023/11/07 05:44:36;;;;;;;15.48;8.70;;;;;;;;;;5082889;28;20040;-64
2023/11/07 05:47:03;;;;;;;14.52;7.57;;;;;;;;;;5083102;28;20020;-63
2023/11/07 05:49:29;;;;;;;18.85;8.18;;;;;;;;;;5082211;28;20033;-63
2023/11/07 05:51:56;;;;;;;15.07;8.10;;;;;;;;;;5082546;28;20029;-63
2023/11/07 05:54:22;;;;;;;16.08;8.02;;;;;;;;;;5082007;28;20024;-63
2023/11/07 05:56:48;;;;;;;14.40;7.93;;;;;;;;;;5064476;28;20032;-64
2023/11/07 05:59:14;;;;;;;14.25;7.90;;;;;;;;;;5082596;28;20679;-64
2023/11/07 06:01:40;;;;;;;16.20;8.77;;;;;;;;;;5081845;28;20020;-64
2023/11/07 06:04:08;;;;;;;14.50;8.20;;;;;;;;;;5082268;28;20044;-63
2023/11/07 06:06:34;;;;;;;17.57;8.30;;;;;;;;;;5081771;28;20070;-65
2023/11/07 06:09:01;;;;;;;15.30;7.90;;;;;;;;;;5082993;28;20024;-64
2023/11/07 06:11:27;;;;;;;13.85;7.93;;;;;;;;;;5064754;28;20025;-61
2023/11/07 06:13:54;;;;;;;13.75;8.13;;;;;;;;;;5082783;28;20474;-63
2023/11/07 06:16:21;;;;;;;16.02;8.43;;;;;;;;;;5082040;28;20088;-64
2023/11/07 06:18:47;;;;;;;13.07;7.35;;;;;;;;;;5081738;28;20051;-64
2023/11/07 06:21:13;;;;;;;13.40;7.65;;;;;;;;;;5082161;28;20024;-64
2023/11/07 06:23:39;;;;;;;17.85;8.77;;;;;;;;;;5081231;28;20024;-64
2023/11/07 06:26:08;;;;;;;14.25;8.40;;;;;;;;;;5082177;28;20027;-64
2023/11/07 06:28:34;;;;;;;17.85;8.15;;;;;;;;;;5080866;28;20031;-63
2023/11/07 06:31:00;;;;;;;14.10;8.27;;;;;;;;;;5081401;28;20112;-65
2023/11/07 06:33:27;;;;;;;13.70;8.20;;;;;;;;;;5081146;28;20455;-67
2023/11/07 06:35:53;;;;;;;17.58;8.57;;;;;;;;;;5081394;28;20128;-63
2023/11/07 06:38:21;;;;;;;13.65;8.00;;;;;;;;;;5062659;28;20024;-63
2023/11/07 06:40:47;;;;;;;14.25;8.10;;;;;;;;;;5080184;28;20080;-64
2023/11/07 06:43:13;;;;;;;13.75;8.05;;;;;;;;;;5080712;28;20417;-63
2023/11/07 06:45:40;;;;;;;14.68;7.80;;;;;;;;;;5080306;28;20025;-63
2023/11/07 06:48:06;;;;;;;14.93;7.60;;;;;;;;;;5079632;28;20032;-63
2023/11/07 06:50:32;;;;;;;13.80;7.95;;;;;;;;;;5080193;28;20034;-63
2023/11/07 06:52:59;;;;;;;14.68;8.20;;;;;;;;;;5062991;28;20023;-63
2023/11/07 06:55:25;;;;;;;14.48;8.77;;;;;;;;;;5062582;28;20031;-62
2023/11/07 06:57:52;;;;;;;15.18;7.82;;;;;;;;;;5080485;28;20087;-64
2023/11/07 07:00:21;;;;;;;14.80;7.97;;;;;;;;;;5080102;28;20047;-61
2023/11/07 07:02:48;;;;;;;;;;;;;;;;;;5062945;28;20028;-62
2023/11/07 07:05:14;;;;;;;14.40;7.70;;;;;;;;;;5079029;28;19962;-65
2023/11/07 07:07:40;;;;;;;14.35;7.82;;;;;;;;;;5080452;28;20020;-65
2023/11/07 07:10:09;;;;;;;14.45;8.00;;;;;;;;;;5077312;28;20029;-63
2023/11/07 07:12:34;;;;;;;;;;;;;;;;;;5071587;28;20025;-63
2023/11/07 07:15:00;;;;;;;14.27;7.57;;;;;;;;;;5050926;28;19923;-64
2023/11/07 07:17:27;;;;;;;15.23;7.50;;;;;;;;;;5060793;28;20080;-64
2023/11/07 07:19:53;;;;;;;13.52;7.38;;;;;;;;;;5076362;28;20024;-64
2023/11/07 07:22:27;;;;;;;14.70;8.20;;;;;;;;;;5061707;28;20127;-62
2023/11/07 07:24:54;;;;;;;14.85;7.90;;;;;;;;;;5079808;28;20482;-62
2023/11/07 07:27:21;;;;;;;13.40;7.70;;;;;;;;;;5055444;28;20036;-64
2023/11/07 07:29:47;;;;;;;13.60;7.15;;;;;;;;;;5059556;28;20385;-63
2023/11/07 07:32:14;;;;;;;13.45;7.50;;;;;;;;;;5042248;28;20032;-61
2023/11/07 07:34:40;;;;;;;16.73;8.35;;;;;;;;;;5059959;28;20029;-63
2023/11/07 07:37:09;;;;;;;15.20;7.88;;;;;;;;;;5060175;28;20063;-64
2023/11/07 07:39:36;;;;;;;17.27;8.05;;;;;;;;;;5058999;28;20035;-64
2023/11/07 07:42:11;;;;;;;20.63;8.23;;;;;;;;;;5060411;28;20486;-63
2023/11/07 07:44:38;;;;;;;18.00;8.15;;;;;;;;;;5068655;28;20039;-64
2023/11/07 07:47:05;;;;;;;15.35;8.18;;;;;;;;;;5079805;28;20020;-66
2023/11/07 07:49:31;;;;;;;13.77;8.07;;;;;;;;;;5079260;28;20097;-64
2023/11/07 07:51:58;;;;;;;14.77;7.60;;;;;;;;;;5079745;28;20032;-63
2023/11/07 07:54:24;;;;;;;15.95;7.93;;;;;;;;;;5061058;28;20096;-63
2023/11/07 07:56:55;;;;;;;16.05;8.23;;;;;;;;;;5079874;28;20079;-64
2023/11/07 07:59:24;;;;;;;15.23;8.13;;;;;;;;;;5061514;28;20020;-64
2023/11/07 08:01:53;;;;;;;16.98;8.65;;;;;;;;;;5080228;28;20089;-64
2023/11/07 08:04:20;;;;;;;18.38;8.30;;;;;;;;;;5079686;28;20088;-66
2023/11/07 08:06:46;;;;;;;15.60;8.27;;;;;;;;;;5062034;28;20047;-65
2023/11/07 08:09:13;;;;;;;13.98;7.80;;;;;;;;;;5079980;28;20078;-64
2023/11/07 08:11:39;;;;;;;13.85;8.30;;;;;;;;;;5079867;28;20059;-63
2023/11/07 08:14:05;;;;;;;16.75;7.90;;;;;;;;;;5061810;28;20025;-66
2023/11/07 08:16:32;;;;;;;13.48;7.78;;;;;;;;;;5080039;28;20025;-65
2023/11/07 08:18:59;;;;;;;15.07;7.93;;;;;;;;;;5080173;28;20028;-63
2023/11/07 08:21:25;;;;;;;14.25;8.07;;;;;;;;;;5078663;28;20036;-62
2023/11/07 08:23:51;;;;;;;14.95;8.43;;;;;;;;;;5062302;28;20032;-62
2023/11/07 08:26:17;;;;;;;14.82;8.18;;;;;;;;;;5079416;28;20713;-63
2023/11/07 08:28:43;;;;;;;14.52;8.07;;;;;;;;;;5079810;28;20025;-64
2023/11/07 08:31:11;;;;;;;17.08;7.78;;;;;;;;;;5074344;28;20024;-59
2023/11/07 08:33:38;;;;;;;14.27;7.57;;;;;;;;;;5068618;28;20032;-52
2023/11/07 08:36:04;;;;;;;14.27;7.78;;;;;;;;;;5068393;28;20017;-57
2023/11/07 08:38:30;;;;;;;16.17;8.00;;;;;;;;;;5068160;28;20028;-52
2023/11/07 08:40:56;;;;;;;14.48;8.55;;;;;;;;;;5068212;28;20389;-52
2023/11/07 08:43:24;;;;;;;15.52;8.20;;;;;;;;;;5068305;28;20031;-55
2023/11/07 08:45:50;;;;;;;14.90;8.20;;;;;;;;;;5068188;28;20567;-58
2023/11/07 08:48:16;;;;;;;16.08;8.10;;;;;;;;;;5050013;28;20032;-55
2023/11/07 08:50:42;;;;;;;14.07;8.10;;;;;;;;;;5068231;28;20032;-58
2023/11/07 08:53:09;;;;;;;15.15;8.27;;;;;;;;;;5067941;28;20020;-57
2023/11/07 08:55:36;;;;;;;15.73;8.70;;;;;;;;;;5068232;28;20028;-55
2023/11/07 08:58:03;;;;;;;13.82;8.40;;;;;;;;;;5049990;28;20099;-53
2023/11/07 09:00:29;;;;;;;14.95;8.10;;;;;;;;;;5052044;28;20119;-55
2023/11/07 09:02:56;;;;;;;14.05;8.18;;;;;;;;;;5071056;28;20027;-58
2023/11/07 09:05:22;;;;;;;14.73;8.25;;;;;;;;;;5068775;28;20129;-51
2023/11/07 09:07:48;;;;;;;14.88;8.10;;;;;;;;;;5057079;28;20094;-51
2023/11/07 09:10:14;;;;;;;13.93;8.65;;;;;;;;;;5060701;28;20078;-55
2023/11/07 09:12:41;;;;;;;15.00;8.35;;;;;;;;;;5068240;28;20587;-55
2023/11/07 09:15:10;;;;;;;14.73;8.55;;;;;;;;;;5068097;28;20091;-52
2023/11/07 09:17:36;;;;;;;15.10;8.60;;;;;;;;;;5068219;28;20032;-54
2023/11/07 09:20:03;;;;;;;16.55;8.50;;;;;;;;;;5068040;28;20070;-54
2023/11/07 09:22:29;;;;;;;14.63;8.07;;;;;;;;;;5050770;28;20073;-50
2023/11/07 09:24:55;;;;;;;15.73;8.30;;;;;;;;;;5068400;28;20063;-50
2023/11/07 09:27:21;;;;;;;14.93;8.10;;;;;;;;;;5068410;28;20031;-56
2023/11/07 09:29:48;;;;;;;16.05;8.63;;;;;;;;;;5067952;28;20091;-53
2023/11/07 09:32:14;;;;;;;14.80;8.98;;;;;;;;;;5068097;28;20017;-52
2023/11/07 09:34:40;;;;;;;14.00;8.18;;;;;;;;;;5067817;28;20081;-52
2023/11/07 09:37:07;;;;;;;14.77;8.50;;;;;;;;;;5068171;28;20036;-51
2023/11/07 09:39:33;;;;;;;15.40;8.70;;;;;;;;;;5072564;28;20016;-49
2023/11/07 09:42:00;;;;;;;14.93;8.52;;;;;;;;;;5072042;28;20509;-54
2023/11/07 09:44:27;;;;;;;15.15;8.23;;;;;;;;;;5053915;28;20105;-53
2023/11/07 09:46:55;;;;;;;15.27;8.32;;;;;;;;;;5054043;28;20107;-52
2023/11/07 09:49:22;;;;;;;13.55;7.85;;;;;;;;;;5071307;28;20033;-52
2023/11/07 09:51:50;;;;;;;15.98;8.35;;;;;;;;;;5071487;28;20024;-50
2023/11/07 09:54:18;;;;;;;15.27;10.25;;;;;;;;;;5067637;28;20576;-55
2023/11/07 09:56:46;;;;;;;14.27;9.18;;;;;;;;;;5086760;28;20501;-53
2023/11/07 09:59:29;;;;;;;14.30;9.20;;;;;;;;;;5071510;28;20391;-55
2023/11/07 10:01:55;;;;;;;14.00;8.50;;;;;;;;;;5071518;28;20056;-50
2023/11/07 10:04:23;;;;;;;14.80;9.07;;;;;;;;;;5071178;28;20052;-54
2023/11/07 10:06:49;;;;;;;14.25;9.00;;;;;;;;;;5052991;28;20429;-54
2023/11/07 10:09:17;;;;;;;14.68;9.48;;;;;;;;;;5071061;28;20082;-57
2023/11/07 10:11:49;;;;;;;20.50;18.60;;;;;;;;;;5070590;28;20035;-54
2023/11/07 10:14:17;;;;;;;22.60;20.42;;;;;;;;;;5051306;28;20445;-53
2023/11/07 10:16:44;;;;;;;22.83;20.73;;;;;;;;;;5070585;28;20024;-50
2023/11/07 10:19:16;;;;;;;25.35;22.85;;;;;;;;;;5071525;28;20052;-57
2023/11/07 10:21:42;;;;;;;25.27;22.98;;;;;;;;;;5070907;28;20385;-55
2023/11/07 10:24:08;;;;;;;25.88;23.48;;;;;;;;;;5071088;28;20032;-53
2023/11/07 10:26:34;;;;;;;29.65;26.60;;;;;;;;;;5070669;28;20024;-50
2023/11/07 10:29:05;;;;;;;28.85;26.17;;;;;;;;;;5070277;28;20069;-55
2023/11/07 10:31:31;;;;;;;30.60;25.55;;;;;;;;;;5070522;28;20108;-57
2023/11/07 10:34:16;;;;;;;27.75;24.67;;;;;;;;;;5070455;28;20444;-51
2023/11/07 10:36:43;;;;;;;28.38;25.67;;;;;;;;;;5070893;28;20058;-53
2023/11/07 10:39:21;;;;;;;28.02;25.33;;;;;;;;;;5070614;28;20539;-50
2023/11/07 10:41:50;;;;;;;28.58;25.98;;;;;;;;;;5070461;28;20070;-55
2023/11/07 10:44:29;;;;;;;28.13;25.55;;;;;;;;;;5070473;28;20035;-50
2023/11/07 10:47:00;;;;;;;27.38;24.88;;;;;;;;;;5070633;28;20036;-52
2023/11/07 10:49:26;;;;;;;27.02;24.40;;;;;;;;;;5069809;28;20462;-54
2023/11/07 10:51:53;;;;;;;26.60;24.10;;;;;;;;;;5070367;28;20414;-52
2023/11/07 10:54:20;;;;;;;26.92;24.42;;;;;;;;;;5070324;28;20055;-58
2023/11/07 10:56:47;;;;;;;27.73;25.30;;;;;;;;;;5070208;28;20032;-53
2023/11/07 10:59:16;;;;;;;28.20;25.50;;;;;;;;;;5052296;28;20406;-53
2023/11/07 11:01:45;;;;;;;26.65;24.25;;;;;;;;;;5068418;28;20085;-55
2023/11/07 11:04:11;;;;;;;;;;;;;;;;;;5069585;28;20078;-52
2023/11/07 11:06:38;;;;;;;26.23;23.73;;;;;;;;;;5069571;28;19912;-52
2023/11/07 11:09:11;;;;;;;26.67;24.17;;;;;;;;;;5069881;28;20024;-57
2023/11/07 11:11:37;;;;;;;25.60;23.10;;;;;;;;;;5069625;28;20044;-52
2023/11/07 11:14:08;;;;;;;25.08;22.67;;;;;;;;;;5069006;28;20108;-53
2023/11/07 11:16:34;;;;;;;24.83;22.13;;;;;;;;;;5070023;28;20094;-50
2023/11/07 11:19:12;;;;;;;25.58;23.17;;;;;;;;;;5070227;28;20536;-55
2023/11/07 11:21:48;;;;;;;24.63;22.42;;;;;;;;;;5036044;28;20036;-49
2023/11/07 11:24:29;;;;;;;23.88;21.67;;;;;;;;;;5070485;28;20035;-52
2023/11/07 11:26:55;;;;;;;24.90;22.40;;;;;;;;;;5069983;28;20107;-53
2023/11/07 11:29:30;;;;;;;20.80;18.70;;;;;;;;;;5069482;28;20159;-54
2023/11/07 11:31:57;;;;;;;21.13;19.02;;;;;;;;;;5069601;28;20058;-50
2023/11/07 11:34:29;;;;;;;21.83;19.58;;;;;;;;;;5051409;28;20125;-54
2023/11/07 11:37:02;;;;;;;20.25;18.25;;;;;;;;;;5069678;28;20154;-52
2023/11/07 11:39:33;;;;;;;19.92;17.83;;;;;;;;;;5069299;28;20020;-55
2023/11/07 11:42:05;;;;;;;20.75;17.30;;;;;;;;;;5051304;28;20020;-52
2023/11/07 11:44:31;;;;;;;19.08;17.08;;;;;;;;;;5069363;28;20405;-56
2023/11/07 11:46:57;;;;;;;18.63;16.70;;;;;;;;;;5069090;28;20020;-52
2023/11/07 11:49:24;;;;;;;18.50;16.33;;;;;;;;;;5068680;28;20425;-52
2023/11/07 11:51:51;;;;;;;18.98;16.80;;;;;;;;;;5068856;28;20413;-52
2023/11/07 11:54:26;;;;;;;16.75;13.77;;;;;;;;;;5068695;28;20063;-55
2023/11/07 11:56:53;;;;;;;17.65;13.38;;;;;;;;;;5068483;28;20202;-52
2023/11/07 11:59:28;;;;;;;14.85;10.07;;;;;;;;;;5068684;28;20024;-52
2023/11/07 12:01:59;;;;;;;16.50;10.00;;;;;;;;;;5051435;28;20033;-52
2023/11/07 12:04:47;;;;;;;15.63;10.10;;;;;;;;;;5068804;28;20031;-53
2023/11/07 12:07:14;;;;;;;15.07;9.82;;;;;;;;;;5069455;28;20032;-53
2023/11/07 12:09:40;;;;;;;16.98;10.90;;;;;;;;;;5069103;28;20529;-48
2023/11/07 12:12:07;;;;;;;15.82;10.93;;;;;;;;;;5068811;28;20116;-56
2023/11/07 12:14:33;;;;;;;15.57;10.82;;;;;;;;;;5068836;28;20094;-52
2023/11/07 12:17:00;;;;;;;14.73;10.05;;;;;;;;;;5068397;28;20028;-56
2023/11/07 12:19:26;;;;;;;15.98;9.85;;;;;;;;;;5051188;28;20025;-56
2023/11/07 12:21:53;;;;;;;15.85;9.57;;;;;;;;;;5050617;28;20060;-55
2023/11/07 12:24:22;;;;;;;15.38;9.30;;;;;;;;;;5068507;28;20028;-57
2023/11/07 12:26:49;;;;;;;14.80;9.10;;;;;;;;;;5068452;28;20144;-56
2023/11/07 12:29:28;;;;;;;14.70;9.45;;;;;;;;;;5050384;28;20445;-55
2023/11/07 12:31:54;;;;;;;16.63;10.07;;;;;;;;;;5068235;28;20024;-53
2023/11/07 12:34:30;;;;;;;14.65;9.05;;;;;;;;;;5068423;28;20020;-55
2023/11/07 12:36:57;;;;;;;15.07;9.93;;;;;;;;;;5068524;28;20016;-53
2023/11/07 12:39:23;;;;;;;15.15;9.88;;;;;;;;;;5050576;28;20021;-56
2023/11/07 12:41:49;;;;;;;15.32;10.30;;;;;;;;;;5068363;28;20027;-55
2023/11/07 12:44:16;;;;;;;15.20;10.35;;;;;;;;;;5068345;28;20160;-54
2023/11/07 12:46:42;;;;;;;14.93;10.48;;;;;;;;;;5068385;28;20039;-57
2023/11/07 12:49:15;;;;;;;15.68;11.82;;;;;;;;;;5068089;28;20116;-57
2023/11/07 12:51:41;;;;;;;16.15;11.30;;;;;;;;;;5068034;28;20052;-56
2023/11/07 12:54:07;;;;;;;16.92;10.35;;;;;;;;;;5068278;28;20024;-57
2023/11/07 12:56:40;;;;;;;14.85;10.18;;;;;;;;;;5068267;28;20078;-53
2023/11/07 12:59:10;;;;;;;14.95;10.63;;;;;;;;;;5068476;28;20020;-53
2023/11/07 13:01:36;;;;;;;16.15;10.95;;;;;;;;;;5068198;28;20035;-54
2023/11/07 13:04:13;;;;;;;15.27;10.05;;;;;;;;;;5068493;28;20032;-56
2023/11/07 13:06:50;;;;;;;14.77;9.95;;;;;;;;;;5068337;28;20116;-56
2023/11/07 13:09:20;;;;;;;15.47;9.87;;;;;;;;;;5068081;28;20035;-53
2023/11/07 13:11:46;;;;;;;15.68;9.57;;;;;;;;;;5051085;28;20651;-54
2023/11/07 13:14:12;;;;;;;15.00;9.70;;;;;;;;;;5072097;28;20081;-53
2023/11/07 13:16:41;;;;;;;14.15;9.30;;;;;;;;;;5071901;28;20586;-55
2023/11/07 13:19:07;;;;;;;15.30;9.70;;;;;;;;;;5071925;28;20134;-56
2023/11/07 13:21:33;;;;;;;14.27;9.15;;;;;;;;;;5071754;28;20769;-53
2023/11/07 13:23:59;;;;;;;15.85;9.93;;;;;;;;;;5071747;28;20029;-52
2023/11/07 13:26:25;;;;;;;14.43;9.55;;;;;;;;;;5071776;28;20028;-53
2023/11/07 13:28:51;;;;;;;15.20;9.80;;;;;;;;;;5071579;28;20513;-57
2023/11/07 13:31:18;;;;;;;16.05;10.40;;;;;;;;;;5073297;28;20074;-57
2023/11/07 13:33:44;;;;;;;14.13;8.95;;;;;;;;;;5072673;28;20405;-55
2023/11/07 13:36:13;;;;;;;16.38;9.20;;;;;;;;;;5071747;28;20024;-58
2023/11/07 13:38:40;;;;;;;14.35;8.77;;;;;;;;;;5065240;28;20100;-53
2023/11/07 13:41:06;;;;;;;14.60;8.80;;;;;;;;;;5070675;28;20040;-56
2023/11/07 13:43:33;;;;;;;14.40;9.00;;;;;;;;;;5071180;28;20024;-52
2023/11/07 13:45:59;;;;;;;14.65;8.82;;;;;;;;;;5071650;28;20035;-53
2023/11/07 13:48:25;;;;;;;15.05;8.50;;;;;;;;;;5071145;28;20028;-56
2023/11/07 13:50:51;;;;;;;14.63;8.88;;;;;;;;;;5046029;28;20029;-53
2023/11/07 13:53:19;;;;;;;14.82;8.93;;;;;;;;;;5052395;28;20021;-53
2023/11/07 13:55:45;;;;;;;15.25;8.60;;;;;;;;;;5034489;28;20079;-51
2023/11/07 13:58:11;;;;;;;16.60;8.90;;;;;;;;;;5059069;28;20069;-49
2023/11/07 14:00:37;;;;;;;14.15;9.02;;;;;;;;;;5060832;28;20372;-51
2023/11/07 14:03:03;;;;;;;15.35;8.70;;;;;;;;;;5062074;28;20096;-55
2023/11/07 14:05:33;;;;;;;13.90;8.95;;;;;;;;;;5066195;28;20016;-54
2023/11/07 14:08:00;;;;;;;15.55;8.40;;;;;;;;;;5062849;28;20027;-53
2023/11/07 14:10:26;;;;;;;14.00;8.45;;;;;;;;;;5058974;28;20025;-54
2023/11/07 14:12:55;;;;;;;16.25;8.55;;;;;;;;;;5058400;28;20398;-58
2023/11/07 14:15:35;;;;;;;15.20;8.13;;;;;;;;;;5053472;28;20025;-52
2023/11/07 14:18:05;;;;;;;16.60;9.02;;;;;;;;;;5059080;28;20122;-56
2023/11/07 14:20:31;;;;;;;14.60;8.52;;;;;;;;;;5059377;28;20021;-53
2023/11/07 14:22:58;;;;;;;15.93;9.07;;;;;;;;;;5034671;28;20044;-53
2023/11/07 14:25:33;;;;;;;14.15;8.85;;;;;;;;;;5050281;28;20479;-53
2023/11/07 14:28:05;;;;;;;17.13;9.60;;;;;;;;;;5050269;28;20144;-55